Lauwersoog, Netherlands

1:12 AM CET on February 06, 2016 (GMT +0100)
Weerstation EE | | Change Station
CLOSE
Current Station
Personal Weather Station
Location: Ee, FRIESLAND
Elevation: 3 ft
Nearby Weather Stations

Elev 3 ft 53.33 °N, 6.10 °E | Updated 1 minute ago

Overcast
Overcast
48.4 °F
Feels Like 44 °F
N
9.6
Wind Variable Wind from South
Gusts 19.0 mph

Today
High -- | Low -- °F
--% Chance of Precip.
Yesterday
High -- | Low -- °F
Precip. -- in
Pressure 29.89 in
Visibility 6.2 miles
Clouds Overcast 3000 ft
Windchill 44 °F
Dew Point 45 °F
Humidity 87%
Rainfall 0.00 in
Snow Depth Not available.
8:12 AM 5:26 PM
Waning Crescent, 8% visible
METAR EHMA 052355Z AUTO 21025KT 180V240 9999 OVC030 09/06 Q1012
Pressure 29.89 in
Visibility 6.2 miles
Clouds Overcast 3000 ft
Windchill 44 °F
Dew Point 45 °F
Humidity 87%
Rainfall 0.00 in
Snow Depth Not available.
8:12 AM 5:26 PM
Waning Crescent, 8% visible
METAR EHMA 052355Z AUTO 21025KT 180V240 9999 OVC030 09/06 Q1012

10-Day Weather Forecast

Almanac

Astronomy

Feb. 06, 2016 Rise Set
Actual Time
Civil Twilight
Nautical Twilight
Astronomical Twilight
Moon
Length of Visible Light
Length of Day
Tomorrow will be .
, % of the Moon is Illuminated

Today's Extremes

Country Highs Country Lows

Community

WunderPhotos

Upload Photos

1,890,893 photos uploaded!

WunderBlog® & News

Nearby

Air Quality

  Air Quality AQ Index Pollutant
Not available.

Snow Depth

Station Depth Elevation

Earthquake Activity

City Distance Mag. Time & Date
Minimum magnitude displayed is 2.5.

Coastal Water Temperatures

Place Temperature

Stations

Nearby Weather Stations

Station Location Temp. Windchill Dew Point Humidity Wind Precip. Elev Updated Type